createdAt,value
2022-08-20T00:00:24.373Z,6.63
2022-08-20T00:03:04.197Z,6.93
2022-08-20T00:05:39.206Z,6.55
2022-08-20T00:08:08.079Z,10.43
2022-08-20T00:10:38.117Z,7.93
2022-08-20T00:13:07.858Z,6.38
2022-08-20T00:15:38.741Z,7.22
2022-08-20T00:18:06.666Z,13.77
2022-08-20T00:20:52.316Z,6.13
2022-08-20T00:23:20.183Z,9.80
2022-08-20T00:25:47.556Z,5.22
2022-08-20T00:28:15.128Z,7.40
2022-08-20T00:30:43.838Z,9.07
2022-08-20T00:33:17.608Z,3.97
2022-08-20T00:35:48.517Z,8.27
2022-08-20T00:38:15.882Z,9.55
2022-08-20T00:40:50.493Z,6.65
2022-08-20T00:43:37.978Z,9.18
2022-08-20T00:46:09.153Z,5.90
2022-08-20T00:48:38.428Z,9.38
2022-08-20T00:51:30.042Z,9.55
2022-08-20T00:54:03.162Z,10.25
2022-08-20T00:56:33.760Z,6.78
2022-08-20T00:59:01.849Z,8.82
2022-08-20T01:01:29.698Z,10.95
2022-08-20T01:03:57.545Z,9.18
2022-08-20T01:06:25.168Z,7.30
2022-08-20T01:08:52.610Z,4.75
2022-08-20T01:11:22.747Z,8.10
2022-08-20T01:13:50.844Z,5.35
2022-08-20T01:16:29.254Z,7.57
2022-08-20T01:18:57.701Z,7.40
2022-08-20T01:21:32.141Z,7.85
2022-08-20T01:24:07.687Z,10.05
2022-08-20T01:26:41.520Z,11.70
2022-08-20T01:29:13.408Z,9.90
2022-08-20T01:31:41.756Z,19.38
2022-08-20T01:34:15.200Z,13.45
2022-08-20T01:36:46.600Z,15.23
2022-08-20T01:39:17.988Z,8.27
2022-08-20T01:41:47.573Z,10.98
2022-08-20T01:46:47.849Z,23.17
2022-08-20T01:49:22.843Z,10.93
2022-08-20T01:51:53.184Z,15.10
2022-08-20T01:57:12.540Z,12.82
2022-08-20T01:59:40.035Z,13.50
2022-08-20T02:02:08.520Z,11.73
2022-08-20T02:04:36.109Z,14.50
2022-08-20T02:07:06.091Z,15.73
2022-08-20T02:09:36.338Z,12.20
2022-08-20T02:12:06.080Z,11.30
2022-08-20T02:14:33.460Z,14.57
2022-08-20T02:17:00.946Z,11.30
2022-08-20T02:19:38.305Z,21.08
2022-08-20T02:22:18.267Z,17.25
2022-08-20T02:24:45.361Z,11.82
2022-08-20T02:27:12.998Z,13.20
2022-08-20T02:29:39.943Z,13.32
2022-08-20T02:32:32.250Z,21.33
2022-08-20T02:34:55.233Z,20.08
2022-08-20T02:37:22.282Z,13.10
2022-08-20T02:39:49.348Z,14.95
2022-08-20T02:42:16.890Z,22.52
2022-08-20T02:44:43.826Z,17.17
2022-08-20T02:47:10.889Z,25.00
2022-08-20T02:49:38.206Z,8.52
2022-08-20T02:52:06.277Z,12.85
2022-08-20T02:54:33.325Z,11.43
2022-08-20T02:57:00.289Z,16.90
2022-08-20T02:59:27.349Z,15.40
2022-08-20T03:02:00.577Z,20.67
2022-08-20T03:04:29.614Z,16.77
2022-08-20T03:06:57.891Z,23.52
2022-08-20T03:09:25.194Z,14.57
2022-08-20T03:11:52.821Z,13.02
2022-08-20T03:14:19.977Z,15.65
2022-08-20T03:16:46.994Z,18.90
2022-08-20T03:19:14.154Z,14.90
2022-08-20T03:21:41.346Z,14.40
2022-08-20T03:24:08.401Z,13.93
2022-08-20T03:26:35.160Z,14.43
2022-08-20T03:29:02.512Z,15.55
2022-08-20T03:31:29.731Z,14.15
2022-08-20T03:33:56.816Z,21.77
2022-08-20T03:36:28.829Z,13.57
2022-08-20T03:38:58.957Z,15.25
2022-08-20T03:41:26.089Z,16.33
2022-08-20T03:43:53.236Z,17.02
2022-08-20T03:46:23.264Z,13.50
2022-08-20T03:49:00.299Z,17.85
2022-08-20T03:51:31.906Z,25.60
2022-08-20T03:54:18.962Z,18.85
2022-08-20T03:56:46.041Z,20.95
2022-08-20T03:59:13.033Z,13.57
2022-08-20T04:01:45.945Z,16.80
2022-08-20T04:04:14.588Z,15.98
2022-08-20T04:06:42.654Z,25.65
2022-08-20T04:09:11.925Z,20.40
2022-08-20T04:14:07.933Z,26.20
2022-08-20T04:16:37.744Z,16.75
2022-08-20T04:19:05.053Z,17.23
2022-08-20T04:21:33.597Z,16.70
2022-08-20T04:24:05.297Z,18.35
2022-08-20T04:26:32.794Z,18.65
2022-08-20T04:28:59.786Z,15.93
2022-08-20T04:31:33.229Z,14.48
2022-08-20T04:34:07.906Z,16.77
2022-08-20T04:36:35.620Z,18.95
2022-08-20T04:39:03.993Z,14.05
2022-08-20T04:41:30.973Z,19.58
2022-08-20T04:43:58.286Z,18.60
2022-08-20T04:46:28.658Z,19.10
2022-08-20T04:48:56.407Z,23.63
2022-08-20T04:51:24.853Z,18.42
2022-08-20T04:53:54.317Z,18.42
2022-08-20T04:58:52.710Z,16.38
2022-08-20T05:01:20.253Z,15.05
2022-08-20T05:03:49.997Z,13.13
2022-08-20T05:08:44.975Z,19.13
2022-08-20T05:11:34.024Z,31.25
2022-08-20T05:14:00.725Z,25.80
2022-08-20T05:16:27.725Z,19.95
2022-08-20T05:18:54.448Z,18.92
2022-08-20T05:21:21.784Z,17.85
2022-08-20T05:23:49.270Z,24.08
2022-08-20T05:26:16.604Z,18.45
2022-08-20T05:28:47.213Z,16.48
2022-08-20T05:31:24.597Z,13.18
2022-08-20T05:34:04.118Z,17.88
2022-08-20T05:36:31.202Z,20.17
2022-08-20T05:38:58.212Z,17.42
2022-08-20T05:41:30.251Z,17.38
2022-08-20T05:44:02.356Z,13.88
2022-08-20T05:46:31.622Z,19.73
2022-08-20T05:49:00.124Z,15.43
2022-08-20T05:51:28.842Z,13.18
2022-08-20T05:53:58.210Z,15.07
2022-08-20T05:56:30.415Z,17.27
2022-08-20T05:59:00.777Z,15.15
2022-08-20T06:01:27.576Z,18.00
2022-08-20T06:04:13.402Z,17.52
2022-08-20T06:06:46.328Z,22.45
2022-08-20T06:09:16.082Z,18.80
2022-08-20T06:11:43.191Z,19.40
2022-08-20T06:14:10.266Z,14.07
2022-08-20T06:16:38.365Z,16.63
2022-08-20T06:19:06.145Z,19.73
2022-08-20T06:21:39.764Z,15.70
2022-08-20T06:24:07.458Z,18.52
2022-08-20T06:26:35.089Z,14.60
2022-08-20T06:29:04.099Z,13.00
2022-08-20T06:31:31.227Z,14.23
2022-08-20T06:33:58.175Z,18.83
2022-08-20T06:36:25.169Z,20.10
2022-08-20T06:38:54.925Z,21.88
2022-08-20T06:41:21.723Z,14.60
2022-08-20T06:43:49.132Z,17.13
2022-08-20T06:46:16.201Z,11.77
2022-08-20T06:48:43.234Z,15.10
2022-08-20T06:51:10.359Z,10.50
2022-08-20T06:53:37.447Z,10.52
2022-08-20T06:56:04.974Z,10.25
2022-08-20T06:58:38.204Z,12.18
2022-08-20T07:01:09.423Z,13.88
2022-08-20T07:03:42.313Z,14.25
2022-08-20T07:06:22.482Z,16.38
2022-08-20T07:08:49.542Z,8.18
2022-08-20T07:11:16.590Z,8.25
2022-08-20T07:13:43.672Z,10.00
2022-08-20T07:16:10.718Z,11.90
2022-08-20T07:18:37.732Z,8.30
2022-08-20T07:21:04.822Z,11.00
2022-08-20T07:23:31.856Z,9.40
2022-08-20T07:26:00.092Z,10.27
2022-08-20T07:28:32.467Z,8.33
2022-08-20T07:31:20.400Z,8.70
2022-08-20T07:33:50.495Z,10.57
2022-08-20T07:36:18.004Z,15.38
2022-08-20T07:38:50.821Z,10.63
2022-08-20T07:41:18.120Z,11.20
2022-08-20T07:43:46.380Z,11.98
2022-08-20T07:46:17.624Z,17.55
2022-08-20T07:48:50.231Z,9.48
2022-08-20T07:51:22.287Z,9.05
2022-08-20T07:53:50.418Z,7.95
2022-08-20T07:56:21.429Z,9.80
2022-08-20T07:58:51.329Z,11.68
2022-08-20T08:01:20.835Z,10.05
2022-08-20T08:03:49.813Z,11.32
2022-08-20T08:06:29.408Z,10.40
2022-08-20T08:09:18.159Z,8.25
2022-08-20T08:11:50.119Z,11.60
2022-08-20T08:14:24.782Z,9.27
2022-08-20T08:16:54.290Z,12.35
2022-08-20T08:19:21.618Z,10.48
2022-08-20T08:21:49.454Z,8.07
2022-08-20T08:24:21.646Z,9.30
2022-08-20T08:26:52.471Z,8.80
2022-08-20T08:29:19.629Z,7.93
2022-08-20T08:31:46.971Z,7.25
2022-08-20T08:34:13.704Z,5.80
2022-08-20T08:36:40.868Z,7.80
2022-08-20T08:39:07.811Z,12.90
2022-08-20T08:41:36.881Z,5.90
2022-08-20T08:44:34.218Z,7.53
2022-08-20T08:47:07.189Z,10.80
2022-08-20T08:49:38.144Z,8.90
2022-08-20T08:52:13.737Z,7.55
2022-08-20T08:54:47.395Z,8.05
2022-08-20T08:57:15.646Z,6.82
2022-08-20T08:59:52.524Z,6.22
2022-08-20T09:02:32.115Z,6.65
2022-08-20T09:05:01.681Z,5.53
2022-08-20T09:07:32.610Z,6.25
2022-08-20T09:10:00.957Z,6.70
2022-08-20T09:12:27.907Z,6.40
2022-08-20T09:14:55.256Z,4.60
2022-08-20T09:17:23.274Z,5.13
2022-08-20T09:19:52.160Z,5.60
2022-08-20T09:22:22.167Z,6.53
2022-08-20T09:24:50.957Z,3.97
2022-08-20T09:27:19.576Z,3.88
2022-08-20T09:29:46.454Z,3.67
2022-08-20T09:32:24.225Z,5.75
2022-08-20T09:34:56.292Z,8.68
2022-08-20T09:37:32.436Z,8.10
2022-08-20T09:40:03.553Z,5.40
2022-08-20T09:42:36.311Z,7.15
2022-08-20T09:45:10.912Z,9.52
2022-08-20T09:47:38.969Z,9.15
2022-08-20T09:50:11.038Z,6.78
2022-08-20T09:52:50.337Z,6.05
2022-08-20T09:55:26.211Z,7.45
2022-08-20T09:57:53.553Z,8.93
2022-08-20T10:00:20.849Z,6.70
2022-08-20T10:02:48.169Z,11.13
2022-08-20T10:05:15.217Z,3.85
2022-08-20T10:07:43.417Z,4.97
2022-08-20T10:10:14.708Z,6.70
2022-08-20T10:12:43.105Z,5.88
2022-08-20T10:15:10.872Z,11.60
2022-08-20T10:17:40.455Z,8.38
2022-08-20T10:20:09.632Z,4.40
2022-08-20T10:22:36.846Z,4.68
2022-08-20T10:25:05.436Z,3.75
2022-08-20T10:27:32.373Z,7.05
2022-08-20T10:29:59.049Z,4.68
2022-08-20T10:32:26.102Z,6.68
2022-08-20T10:34:53.043Z,5.60
2022-08-20T10:37:23.841Z,5.88
2022-08-20T10:39:51.412Z,5.03
2022-08-20T10:42:19.097Z,8.07
2022-08-20T10:44:46.101Z,6.38
2022-08-20T10:47:33.498Z,5.72
2022-08-20T10:50:04.364Z,9.93
2022-08-20T10:52:31.518Z,8.05
2022-08-20T10:54:58.570Z,7.93
2022-08-20T10:57:28.579Z,5.68
2022-08-20T10:59:57.301Z,6.93
2022-08-20T11:02:25.553Z,5.00
2022-08-20T11:04:53.322Z,6.05
2022-08-20T11:07:54.763Z,5.78
2022-08-20T11:10:18.542Z,5.13
2022-08-20T11:12:46.220Z,4.55
2022-08-20T11:15:14.458Z,4.13
2022-08-20T11:17:43.388Z,4.30
2022-08-20T11:20:13.631Z,6.28
2022-08-20T11:22:40.788Z,5.13
2022-08-20T11:25:08.175Z,4.35
2022-08-20T11:27:39.827Z,2.92
2022-08-20T11:30:09.738Z,4.20
2022-08-20T11:32:36.872Z,5.20
2022-08-20T11:35:24.526Z,6.00
2022-08-20T11:37:53.089Z,8.15
2022-08-20T11:40:20.757Z,7.38
2022-08-20T11:43:10.953Z,6.72
2022-08-20T11:45:37.644Z,15.27
2022-08-20T11:48:05.192Z,4.47
2022-08-20T11:50:32.593Z,6.70
2022-08-20T11:53:01.495Z,4.05
2022-08-20T11:55:30.652Z,2.70
2022-08-20T11:58:00.405Z,4.00
2022-08-20T12:00:32.768Z,6.43
2022-08-20T12:03:08.665Z,2.67
2022-08-20T12:05:41.097Z,2.63
2022-08-20T12:08:08.484Z,5.30
2022-08-20T12:10:35.892Z,2.13
2022-08-20T12:13:04.757Z,3.58
2022-08-20T12:15:33.354Z,4.10
2022-08-20T12:18:01.120Z,6.32
2022-08-20T12:20:28.096Z,3.80
2022-08-20T12:22:55.335Z,2.92
2022-08-20T12:25:22.627Z,4.22
2022-08-20T12:27:49.554Z,2.42
2022-08-20T12:30:19.921Z,2.35
2022-08-20T12:32:46.936Z,2.15
2022-08-20T12:35:15.780Z,3.35
2022-08-20T12:37:43.746Z,7.72
2022-08-20T12:40:14.039Z,3.90
2022-08-20T12:42:41.059Z,3.67
2022-08-20T12:45:08.517Z,4.03
2022-08-20T12:47:38.862Z,3.95
2022-08-20T12:50:12.078Z,2.40
2022-08-20T12:52:39.560Z,4.25
2022-08-20T12:55:07.839Z,4.35
2022-08-20T12:57:43.984Z,5.82
2022-08-20T13:00:29.887Z,2.75
2022-08-20T13:02:58.818Z,3.53
2022-08-20T13:05:27.297Z,4.47
2022-08-20T13:07:55.332Z,2.83
2022-08-20T13:10:31.302Z,3.73
2022-08-20T13:12:58.812Z,3.63
2022-08-20T13:15:26.102Z,2.75
2022-08-20T13:17:57.983Z,5.18
2022-08-20T13:20:27.028Z,5.15
2022-08-20T13:23:01.118Z,2.40
2022-08-20T13:25:27.948Z,4.13
2022-08-20T13:27:59.773Z,6.60
2022-08-20T13:30:27.231Z,3.47
2022-08-20T13:32:54.083Z,5.03
2022-08-20T13:35:21.537Z,4.03
2022-08-20T13:37:50.051Z,4.95
2022-08-20T13:40:18.339Z,4.28
2022-08-20T13:42:45.078Z,5.13
2022-08-20T13:45:12.274Z,3.78
2022-08-20T13:47:40.779Z,2.97
2022-08-20T13:50:12.803Z,3.00
2022-08-20T13:52:40.186Z,4.85
2022-08-20T13:55:12.364Z,4.95
2022-08-20T13:57:40.547Z,3.75
2022-08-20T14:00:12.700Z,3.70
2022-08-20T14:02:41.183Z,13.38
2022-08-20T14:05:08.576Z,3.97
2022-08-20T14:07:35.856Z,3.70
2022-08-20T14:10:09.781Z,2.53
2022-08-20T14:12:36.633Z,3.33
2022-08-20T14:15:04.419Z,6.03
2022-08-20T14:17:37.059Z,4.35
2022-08-20T14:20:25.132Z,3.05
2022-08-20T14:22:58.004Z,4.85
2022-08-20T14:25:26.906Z,3.67
2022-08-20T14:27:54.687Z,6.35
2022-08-20T14:30:28.490Z,4.80
2022-08-20T14:32:56.279Z,4.90
2022-08-20T14:35:23.537Z,3.78
2022-08-20T14:37:53.353Z,4.60
2022-08-20T14:40:22.167Z,5.72
2022-08-20T14:42:51.861Z,5.07
2022-08-20T14:45:20.295Z,4.88
2022-08-20T14:47:54.207Z,2.87
2022-08-20T14:50:25.129Z,3.40
2022-08-20T14:52:54.033Z,3.65
2022-08-20T14:55:25.279Z,8.70
2022-08-20T14:57:52.393Z,4.38
2022-08-20T15:00:26.506Z,6.55
2022-08-20T15:02:53.650Z,4.82
2022-08-20T15:05:21.075Z,8.40
2022-08-20T15:07:51.802Z,3.05
2022-08-20T15:10:26.789Z,16.08
2022-08-20T15:12:54.354Z,7.00
2022-08-20T15:15:21.937Z,5.72
2022-08-20T15:17:55.408Z,33.60
2022-08-20T15:20:25.905Z,5.70
2022-08-20T15:22:53.136Z,4.28
2022-08-20T15:25:23.492Z,9.93
2022-08-20T15:27:51.656Z,4.60
2022-08-20T15:30:21.028Z,4.88
2022-08-20T15:32:52.693Z,5.80
2022-08-20T15:35:24.379Z,3.00
2022-08-20T15:37:51.487Z,3.15
2022-08-20T15:40:27.831Z,4.90
2022-08-20T15:42:56.072Z,4.65
2022-08-20T15:45:23.192Z,4.03
2022-08-20T15:47:50.185Z,3.88
2022-08-20T15:50:50.288Z,4.47
2022-08-20T15:53:37.524Z,4.55
2022-08-20T15:56:35.930Z,2.83
2022-08-20T15:59:05.526Z,6.85
2022-08-20T16:01:42.906Z,5.35
2022-08-20T16:04:36.109Z,7.20
2022-08-20T16:07:13.085Z,2.88
2022-08-20T16:09:58.620Z,5.68
2022-08-20T16:12:38.249Z,4.38
2022-08-20T16:15:30.156Z,7.43
2022-08-20T16:18:08.644Z,3.08
2022-08-20T16:20:47.873Z,4.63
2022-08-20T16:23:29.343Z,4.55
2022-08-20T16:26:25.252Z,5.80
2022-08-20T16:29:10.479Z,5.18
2022-08-20T16:32:05.777Z,10.18
2022-08-20T16:34:51.177Z,2.78
2022-08-20T16:37:27.134Z,4.95
2022-08-20T16:40:39.478Z,4.45
2022-08-20T16:43:10.648Z,4.07
2022-08-20T16:45:50.777Z,4.03
2022-08-20T16:48:19.039Z,6.45
2022-08-20T16:50:57.008Z,4.00
2022-08-20T16:53:25.809Z,4.70
2022-08-20T16:55:53.776Z,3.28
2022-08-20T16:58:20.784Z,4.88
2022-08-20T17:00:48.910Z,7.68
2022-08-20T17:03:38.580Z,5.35
2022-08-20T17:06:25.047Z,4.63
2022-08-20T17:08:51.889Z,5.80
2022-08-20T17:11:33.636Z,7.28
2022-08-20T17:14:10.730Z,4.93
2022-08-20T17:16:43.241Z,3.72
2022-08-20T17:19:18.965Z,4.97
2022-08-20T17:21:50.343Z,9.13
2022-08-20T17:24:27.305Z,5.32
2022-08-20T17:27:03.328Z,2.65
2022-08-20T17:29:36.372Z,4.60
2022-08-20T17:32:29.615Z,3.97
2022-08-20T17:35:00.367Z,3.65
2022-08-20T17:37:40.577Z,2.88
2022-08-20T17:40:26.145Z,4.78
2022-08-20T17:42:58.447Z,6.88
2022-08-20T17:45:54.245Z,8.63
2022-08-20T17:48:27.669Z,8.98
2022-08-20T17:50:55.431Z,3.92
2022-08-20T17:53:31.494Z,4.10
2022-08-20T17:56:11.482Z,5.07
2022-08-20T17:58:54.679Z,6.65
2022-08-20T18:01:23.105Z,4.60
2022-08-20T18:03:52.155Z,7.53
2022-08-20T18:06:32.901Z,6.25
2022-08-20T18:09:08.480Z,3.97
2022-08-20T18:11:59.301Z,2.60
2022-08-20T18:14:33.900Z,6.45
2022-08-20T18:17:34.541Z,6.30
2022-08-20T18:20:39.419Z,9.95
2022-08-20T18:23:21.943Z,4.07
2022-08-20T18:26:07.832Z,8.02
2022-08-20T18:28:40.088Z,5.15
2022-08-20T18:31:10.226Z,4.93
2022-08-20T18:33:42.792Z,4.25
2022-08-20T18:36:25.953Z,4.53
2022-08-20T18:39:28.783Z,7.30
2022-08-20T18:42:01.773Z,4.22
2022-08-20T18:44:45.074Z,5.95
2022-08-20T18:47:33.978Z,7.05
2022-08-20T18:50:15.884Z,5.13
2022-08-20T18:52:47.825Z,12.65
2022-08-20T18:55:59.309Z,7.57
2022-08-20T18:58:47.008Z,4.93
2022-08-20T19:01:15.048Z,5.60
2022-08-20T19:03:48.100Z,3.75
2022-08-20T19:07:00.195Z,6.65
2022-08-20T19:10:06.387Z,7.53
2022-08-20T19:13:01.065Z,6.10
2022-08-20T19:15:31.626Z,3.95
2022-08-20T19:18:09.116Z,10.23
2022-08-20T19:20:39.159Z,3.85
2022-08-20T19:23:20.376Z,7.45
2022-08-20T19:26:25.396Z,9.13
2022-08-20T19:28:59.341Z,9.13
2022-08-20T19:31:32.986Z,4.03
2022-08-20T19:34:29.317Z,7.30
2022-08-20T19:37:28.141Z,5.80
2022-08-20T19:39:52.378Z,8.57
2022-08-20T19:42:29.790Z,5.18
2022-08-20T19:45:05.982Z,9.18
2022-08-20T19:47:49.714Z,4.20
2022-08-20T19:50:31.473Z,6.90
2022-08-20T19:53:26.502Z,6.05
2022-08-20T19:56:01.539Z,7.32
2022-08-20T19:58:31.099Z,3.72
2022-08-20T20:00:58.908Z,4.68
2022-08-20T20:03:29.333Z,8.65
2022-08-20T20:06:18.035Z,6.45
2022-08-20T20:08:57.418Z,6.53
2022-08-20T20:14:04.315Z,5.70
2022-08-20T20:16:32.403Z,6.07
2022-08-20T20:19:24.664Z,10.85
2022-08-20T20:22:26.782Z,5.65
2022-08-20T20:25:20.792Z,4.85
2022-08-20T20:27:57.362Z,8.13
2022-08-20T20:30:32.348Z,5.85
2022-08-20T20:33:02.859Z,3.67
2022-08-20T20:35:32.834Z,4.53
2022-08-20T20:38:04.266Z,4.78
2022-08-20T20:40:50.064Z,5.82
2022-08-20T20:43:43.000Z,6.07
2022-08-20T20:46:23.609Z,5.00
2022-08-20T20:49:17.830Z,7.35
2022-08-20T20:52:15.078Z,5.00
2022-08-20T20:54:45.336Z,4.40
2022-08-20T20:57:18.434Z,4.43
2022-08-20T20:59:48.884Z,5.82
2022-08-20T21:02:16.825Z,6.28
2022-08-20T21:04:44.656Z,2.83
2022-08-20T21:07:14.643Z,10.38
2022-08-20T21:09:42.406Z,7.65
2022-08-20T21:12:11.200Z,4.85
2022-08-20T21:14:38.592Z,5.63
2022-08-20T21:17:08.153Z,6.13
2022-08-20T21:19:35.222Z,5.50
2022-08-20T21:22:13.447Z,5.57
2022-08-20T21:24:40.170Z,5.72
2022-08-20T21:27:08.362Z,5.32
2022-08-20T21:29:39.119Z,9.55
2022-08-20T21:32:06.387Z,4.72
2022-08-20T21:34:33.224Z,13.88
2022-08-20T21:37:00.300Z,5.82
2022-08-20T21:39:27.390Z,7.40
2022-08-20T21:41:57.134Z,7.55
2022-08-20T21:44:27.370Z,9.93
2022-08-20T21:46:57.837Z,7.47
2022-08-20T21:49:26.326Z,5.78
2022-08-20T21:51:53.760Z,6.85
2022-08-20T21:54:21.982Z,9.63
2022-08-20T21:57:07.771Z,6.50
2022-08-20T21:59:38.059Z,4.07
2022-08-20T22:02:06.285Z,7.47
2022-08-20T22:04:35.534Z,6.20
2022-08-20T22:09:31.457Z,6.05
2022-08-20T22:12:02.266Z,4.95
2022-08-20T22:14:30.225Z,9.65
2022-08-20T22:16:57.441Z,8.63
2022-08-20T22:19:24.724Z,5.28
2022-08-20T22:21:54.577Z,7.75
2022-08-20T22:24:23.108Z,4.22
2022-08-20T22:26:50.078Z,3.70
2022-08-20T22:29:17.791Z,5.93
2022-08-20T22:31:45.067Z,6.70
2022-08-20T22:34:14.849Z,6.03
2022-08-20T22:36:42.149Z,3.50
2022-08-20T22:39:09.181Z,7.75
2022-08-20T22:41:39.358Z,7.63
2022-08-20T22:44:06.487Z,7.22
2022-08-20T22:46:37.534Z,6.45
2022-08-20T22:49:07.070Z,3.22
2022-08-20T22:56:32.248Z,4.78
2022-08-20T22:59:01.752Z,10.40
2022-08-20T23:01:29.241Z,6.60
2022-08-20T23:04:00.988Z,7.85
2022-08-20T23:06:30.050Z,6.70
2022-08-20T23:08:56.831Z,3.58
2022-08-20T23:11:23.870Z,7.55
2022-08-20T23:13:51.720Z,3.90
2022-08-20T23:16:18.802Z,3.90
2022-08-20T23:18:45.867Z,6.63
2022-08-20T23:21:12.895Z,9.18
2022-08-20T23:23:39.926Z,6.50
2022-08-20T23:26:07.373Z,5.90
2022-08-20T23:28:34.666Z,4.60
2022-08-20T23:31:01.534Z,4.28
2022-08-20T23:33:28.548Z,4.38
2022-08-20T23:35:56.044Z,6.70
2022-08-20T23:38:23.125Z,4.85
2022-08-20T23:40:50.041Z,3.83
2022-08-20T23:43:18.658Z,4.40
2022-08-20T23:45:45.694Z,6.72
2022-08-20T23:48:12.460Z,7.72
2022-08-20T23:50:39.525Z,6.03
2022-08-20T23:53:06.556Z,5.70
2022-08-20T23:55:34.458Z,4.50
2022-08-20T23:58:01.839Z,5.10
